Young Endeavour — VMGW — position and weather

sailwx.info

Track history (hours):
 
Tides and Currents Weather Stations Pressure Air Temp Water Temp Dewpoint Dewpoint Depression Visibility Wind Speed Wind Dir Waves Ship Positions

Young Endeavour (Australia)

Ship's website: http://www.youngendeavour.gov.au/

Last reported at 2018-Apr-19 14:45 UTC. Time now 2018-Apr-23 00:19 UTC.
Position S 34°01' E 151°18'.

Length 44 m; beam 7.8 m; draft 4 m.

Type: Sailing vessel. MMSI: 503071000.

Date/timePositionNaut miles runAvg speedWind from/ knotsBaromVisibWave heightAir tempDewpointWater temp
2018-Apr-19 14:45S 34°01' E 151°18'2 8.1
2018-Apr-19 14:30S 33°59' E 151°20'4 8.1
2018-Apr-19 14:00S 33°56' E 151°22'4 8.4
2018-Apr-19 13:30S 33°52' E 151°25'4 8.3
2018-Apr-19 13:00S 33°48' E 151°26'4 8.6
2018-Apr-19 12:30S 33°44' E 151°27'4 8.7
2018-Apr-19 12:00S 33°40' E 151°27'44 7.0
2018-Apr-19 05:46S 33°01' E 151°51'2 5.9
2018-Apr-19 05:30S 32°60' E 151°52'4 7.5
2018-Apr-19 05:00S 32°57' E 151°55'4 8.1
2018-Apr-19 04:30S 32°54' E 151°58'4 8.0
2018-Apr-19 04:00S 32°52' E 152°02'4 7.8
2018-Apr-19 03:30S 32°50' E 152°06'4 7.6
2018-Apr-19 03:00S 32°48' E 152°10'4 7.6
2018-Apr-19 02:30S 32°46' E 152°14'4 7.7
2018-Apr-19 02:00S 32°42' E 152°17'4 7.8
2018-Apr-19 01:30S 32°39' E 152°19'3 6.3
2018-Apr-19 01:00S 32°36' E 152°21'2 3.3
2018-Apr-19 00:30S 32°36' E 152°19'0 0.1
2018-Apr-18 23:59S 32°37' E 152°19'0 0.0
2018-Apr-18 23:31S 32°37' E 152°19'0 0.0
2018-Apr-18 23:00S 32°37' E 152°19'0 0.0
2018-Apr-18 22:30S 32°37' E 152°19'0 0.0
2018-Apr-18 22:00S 32°37' E 152°19'0 0.0
2018-Apr-18 21:31S 32°37' E 152°19'0 0.0
2018-Apr-18 21:01S 32°37' E 152°19'0 0.0
2018-Apr-18 20:30S 32°37' E 152°19'0 0.0
2018-Apr-18 20:00S 32°37' E 152°19'0 0.0
2018-Apr-18 19:30S 32°37' E 152°19'0 0.0
2018-Apr-18 19:01S 32°37' E 152°19'0 0.0
2018-Apr-18 18:30S 32°37' E 152°19'0 0.0
2018-Apr-18 18:00S 32°37' E 152°19'0 0.0
2018-Apr-18 17:30S 32°37' E 152°19'0 0.0
2018-Apr-18 17:00S 32°37' E 152°19'0 0.0
2018-Apr-18 16:30S 32°37' E 152°19'0 0.0
2018-Apr-18 16:00S 32°37' E 152°19'0 0.0
2018-Apr-18 15:30S 32°37' E 152°19'0 0.0
2018-Apr-18 15:00S 32°37' E 152°19'0 0.0
2018-Apr-18 14:30S 32°37' E 152°19'0 0.0
2018-Apr-18 14:00S 32°37' E 152°19'0 0.0
2018-Apr-18 13:30S 32°37' E 152°19'0 0.0
2018-Apr-18 13:01S 32°37' E 152°19'0 0.0
2018-Apr-18 12:31S 32°37' E 152°19'0 0.0
2018-Apr-18 12:01S 32°37' E 152°19'0 0.0
2018-Apr-18 11:30S 32°37' E 152°19'0 0.0
2018-Apr-18 11:00S 32°37' E 152°19'0 0.0
2018-Apr-18 10:31S 32°37' E 152°19'0 0.0
2018-Apr-18 10:01S 32°37' E 152°19'0 0.0
2018-Apr-18 09:30S 32°37' E 152°19'0 0.1
2018-Apr-18 09:00S 32°37' E 152°19'0 0.1
2018-Apr-18 08:30S 32°37' E 152°19'0 0.0
2018-Apr-18 08:00S 32°37' E 152°19'0 0.0
2018-Apr-18 07:30S 32°37' E 152°19'0 0.1
2018-Apr-18 07:00S 32°37' E 152°19'0 0.0
2018-Apr-18 06:30S 32°37' E 152°19'0 0.0
2018-Apr-18 06:00S 32°36' E 152°19'0 0.0
2018-Apr-18 05:30S 32°36' E 152°19'0 0.0
2018-Apr-18 05:00S 32°37' E 152°19'0 0.1
2018-Apr-18 04:30S 32°36' E 152°19'0 0.0
2018-Apr-18 04:00S 32°36' E 152°19'0 0.1
2018-Apr-18 03:30S 32°36' E 152°19'1 2.7
2018-Apr-18 03:00S 32°36' E 152°20'2 4.9
2018-Apr-18 02:30S 32°37' E 152°22'3 6.0
2018-Apr-18 02:00S 32°40' E 152°21'3 5.5
2018-Apr-18 01:30S 32°43' E 152°20'1 1.0
2018-Apr-18 01:00S 32°43' E 152°21'2 4.1
2018-Apr-18 00:30S 32°45' E 152°21'3 6.8
2018-Apr-18 00:00S 32°48' E 152°18'3 6.8
2018-Apr-17 23:30S 32°51' E 152°16'3 7.0
2018-Apr-17 23:00S 32°53' E 152°13'3 6.9
2018-Apr-17 22:30S 32°57' E 152°12'4 6.9
2018-Apr-17 22:00S 32°60' E 152°10'48 4.0
2018-Apr-17 10:01S 33°36' E 151°32'2 6.6
2018-Apr-17 09:43S 33°37' E 151°30'5 5.4
2018-Apr-17 08:46S 33°40' E 151°25'1 3.0
2018-Apr-17 08:30S 33°41' E 151°25'2 3.4
2018-Apr-17 08:00S 33°42' E 151°24'2 3.3
2018-Apr-17 07:30S 33°44' E 151°23'2 3.4
2018-Apr-17 07:00S 33°45' E 151°23'2 3.4
2018-Apr-17 06:30S 33°47' E 151°22'3 6.4
2018-Apr-17 06:00S 33°50' E 151°20'3 5.7
2018-Apr-17 05:30S 33°50' E 151°17'1 2.1
2018-Apr-17 05:00S 33°51' E 151°16'0 0.0
2018-Apr-17 04:30S 33°51' E 151°16'0 0.0
2018-Apr-17 03:57S 33°51' E 151°16'0 0.0
2018-Apr-17 03:30S 33°51' E 151°16'0 0.0
2018-Apr-17 03:00S 33°51' E 151°16'0 0.0
2018-Apr-17 02:30S 33°51' E 151°16'0 0.1
2018-Apr-17 01:57S 33°51' E 151°16'0 0.0
2018-Apr-17 01:30S 33°51' E 151°16'0 0.0
2018-Apr-17 00:57S 33°51' E 151°16'0 0.0
2018-Apr-17 00:27S 33°51' E 151°16'0 0.0
2018-Apr-17 00:00S 33°51' E 151°16'0 0.0
2018-Apr-16 23:30S 33°51' E 151°16'0 0.0
2018-Apr-16 22:57S 33°51' E 151°16'0 0.0
2018-Apr-16 22:30S 33°51' E 151°16'0 0.0
2018-Apr-16 22:00S 33°51' E 151°16'0 0.0
2018-Apr-16 21:27S 33°51' E 151°16'0 0.0
2018-Apr-16 21:00S 33°51' E 151°16'0 0.0
2018-Apr-16 20:30S 33°51' E 151°16'0 0.0
2018-Apr-16 20:00S 33°51' E 151°16'0 0.0
2018-Apr-16 19:30S 33°51' E 151°16'0 0.0
2018-Apr-16 19:00S 33°51' E 151°16'0 0.0
2018-Apr-16 18:30S 33°51' E 151°16'0 0.1
2018-Apr-16 18:00S 33°51' E 151°16'0 0.1
2018-Apr-16 17:30S 33°51' E 151°16'0 0.0
2018-Apr-16 17:00S 33°51' E 151°16'0 0.0
2018-Apr-16 16:30S 33°51' E 151°16'0 0.0
2018-Apr-16 16:00S 33°51' E 151°16'0 0.0
2018-Apr-16 15:30S 33°51' E 151°16'0 0.0
2018-Apr-16 15:00S 33°51' E 151°16'0 0.0
2018-Apr-16 14:30S 33°51' E 151°16'0 0.0
2018-Apr-16 14:00S 33°51' E 151°16'0 0.0
2018-Apr-16 13:30S 33°51' E 151°16'0 0.0
2018-Apr-16 13:00S 33°51' E 151°16'0 0.0
2018-Apr-16 12:30S 33°51' E 151°16'0 0.0
2018-Apr-16 12:00S 33°51' E 151°16'0 0.0
2018-Apr-16 11:30S 33°51' E 151°16'0 0.0
2018-Apr-16 11:00S 33°51' E 151°16'0 0.0
2018-Apr-16 10:30S 33°51' E 151°16'0 0.0
2018-Apr-16 10:00S 33°51' E 151°16'0 0.0
2018-Apr-16 09:27S 33°51' E 151°16'0 0.0
2018-Apr-16 09:00S 33°51' E 151°16'0 0.0
2018-Apr-16 08:30S 33°51' E 151°16'0 0.0
2018-Apr-16 08:00S 33°51' E 151°16'0 0.0
2018-Apr-16 07:30S 33°51' E 151°16'0 0.1
2018-Apr-16 07:00S 33°51' E 151°16'  
2018-Apr-12 01:42S 33°51' E 151°15'1 3.3
2018-Apr-12 01:30S 33°51' E 151°16'0 0.2
2018-Apr-11 22:36S 33°51' E 151°15'1 7.1
2018-Apr-11 22:31S 33°51' E 151°16'2 3.5
2018-Apr-11 21:55S 33°49' E 151°17'0 0.0
2018-Apr-11 21:19S 33°49' E 151°17'0 0.0
2018-Apr-11 20:55S 33°49' E 151°17'0 0.1
2018-Apr-11 20:28S 33°49' E 151°17'0 0.0
2018-Apr-11 19:58S 33°49' E 151°17'0 0.1
2018-Apr-11 19:28S 33°49' E 151°17'0 0.0
2018-Apr-11 18:58S 33°49' E 151°17'0 0.1
2018-Apr-11 18:28S 33°49' E 151°17'0 0.0
2018-Apr-11 17:58S 33°49' E 151°17'0 0.0
2018-Apr-11 17:25S 33°49' E 151°17'0 0.0
2018-Apr-11 16:58S 33°49' E 151°17'0 0.0
2018-Apr-11 16:25S 33°49' E 151°17'0 0.0
2018-Apr-11 15:55S 33°49' E 151°17'0 0.1
2018-Apr-11 15:19S 33°49' E 151°17'0 0.1
2018-Apr-11 14:58S 33°49' E 151°17'0 0.0
2018-Apr-11 14:28S 33°49' E 151°17'0 0.0
2018-Apr-11 13:55S 33°49' E 151°17'0 0.0
2018-Apr-11 13:25S 33°49' E 151°17'0 0.0
2018-Apr-11 12:58S 33°49' E 151°17'0 0.0
2018-Apr-11 12:28S 33°49' E 151°17'0 0.0
2018-Apr-11 11:58S 33°49' E 151°17'0 0.0
2018-Apr-11 11:28S 33°49' E 151°17'0 0.0
2018-Apr-11 10:55S 33°49' E 151°17'0 0.0
2018-Apr-11 10:25S 33°49' E 151°17'0 0.0
2018-Apr-11 09:49S 33°49' E 151°17'0 0.0
2018-Apr-11 09:28S 33°49' E 151°17'0 0.0
2018-Apr-11 08:58S 33°49' E 151°17'0 0.0
2018-Apr-11 08:28S 33°49' E 151°17'0 0.0
2018-Apr-11 07:58S 33°49' E 151°17'0 0.0
2018-Apr-11 07:28S 33°49' E 151°17'0 0.0
2018-Apr-11 06:46S 33°49' E 151°17'0 0.0
2018-Apr-11 05:43S 33°49' E 151°17'0 0.0
2018-Apr-11 05:28S 33°49' E 151°17'0 0.0
2018-Apr-11 04:10S 33°49' E 151°17'0 0.0
2018-Apr-11 03:55S 33°49' E 151°17'0 0.0
2018-Apr-11 03:28S 33°49' E 151°17'0 0.0
2018-Apr-11 02:01S 33°49' E 151°17'0 0.0
2018-Apr-11 01:49S 33°49' E 151°17'0 0.0
2018-Apr-11 00:55S 33°49' E 151°17'0 0.0
2018-Apr-11 00:13S 33°49' E 151°17'0 0.0
2018-Apr-10 23:43S 33°49' E 151°17'0 0.0
2018-Apr-10 23:25S 33°49' E 151°17'0 0.0
2018-Apr-10 22:55S 33°49' E 151°17'0 0.0
2018-Apr-10 22:25S 33°49' E 151°17'0 0.0
2018-Apr-10 21:46S 33°49' E 151°17'0 0.0
2018-Apr-10 21:28S 33°49' E 151°17'0 0.1
2018-Apr-10 20:55S 33°49' E 151°17'0 0.1
2018-Apr-10 20:22S 33°49' E 151°17'0 0.0
2018-Apr-10 19:58S 33°49' E 151°17'0 0.0
2018-Apr-10 19:28S 33°49' E 151°17'0 0.0
2018-Apr-10 18:58S 33°49' E 151°17'0 0.0
2018-Apr-10 18:25S 33°49' E 151°17'0 0.0
2018-Apr-10 17:58S 33°49' E 151°17'0 0.0
2018-Apr-10 17:28S 33°49' E 151°17'0 0.0
2018-Apr-10 16:52S 33°49' E 151°17'0 0.0
2018-Apr-10 16:25S 33°49' E 151°17'0 0.0
2018-Apr-10 15:58S 33°49' E 151°17'0 0.0
2018-Apr-10 15:28S 33°49' E 151°17'0 0.0
2018-Apr-10 14:52S 33°49' E 151°17'0 0.0
2018-Apr-10 14:28S 33°49' E 151°17'0 0.0
2018-Apr-10 13:58S 33°49' E 151°17'0 0.1
2018-Apr-10 13:30S 33°49' E 151°17'2 3.4
2018-Apr-10 13:01S 33°50' E 151°18'2 4.8
2018-Apr-10 12:31S 33°50' E 151°21'2 4.0
2018-Apr-10 12:01S 33°49' E 151°24'2 3.3
2018-Apr-10 11:31S 33°48' E 151°25'2 4.1
2018-Apr-10 11:01S 33°46' E 151°25'2 4.4
2018-Apr-10 10:31S 33°44' E 151°24'2 4.1
2018-Apr-10 10:01S 33°42' E 151°24'2 4.1
2018-Apr-10 09:31S 33°40' E 151°24'2 4.0
2018-Apr-10 09:00S 33°38' E 151°24'2 3.6
2018-Apr-10 08:25S 33°36' E 151°23'2 4.0
2018-Apr-10 08:00S 33°35' E 151°21'2 3.4
2018-Apr-10 07:30S 33°34' E 151°19'0 0.2
2018-Apr-10 06:26S 33°34' E 151°20'2 4.3
2018-Apr-10 06:00S 33°34' E 151°17'  
Track history (hours):
 
Tides and Currents Weather Stations Pressure Air Temp Water Temp Dewpoint Dewpoint Depression Visibility Wind Speed Wind Dir Waves Ship Positions

Young Endeavour (Australia)

Ship's website: http://www.youngendeavour.gov.au/

Last reported at 2018-Apr-19 14:45 UTC. Time now 2018-Apr-23 00:19 UTC.
Position S 34°01' E 151°18'.

Length 44 m; beam 7.8 m; draft 4 m.

Type: Sailing vessel. MMSI: 503071000.

Date/timePositionNaut miles runAvg speedWind from/ knotsBaromVisibWave heightAir tempDewpointWater temp
2018-Apr-19 14:45S 34°01' E 151°18'2 8.1
2018-Apr-19 14:30S 33°59' E 151°20'4 8.1
2018-Apr-19 14:00S 33°56' E 151°22'4 8.4
2018-Apr-19 13:30S 33°52' E 151°25'4 8.3
2018-Apr-19 13:00S 33°48' E 151°26'4 8.6
2018-Apr-19 12:30S 33°44' E 151°27'4 8.7
2018-Apr-19 12:00S 33°40' E 151°27'44 7.0
2018-Apr-19 05:46S 33°01' E 151°51'2 5.9
2018-Apr-19 05:30S 32°60' E 151°52'4 7.5
2018-Apr-19 05:00S 32°57' E 151°55'4 8.1
2018-Apr-19 04:30S 32°54' E 151°58'4 8.0
2018-Apr-19 04:00S 32°52' E 152°02'4 7.8
2018-Apr-19 03:30S 32°50' E 152°06'4 7.6
2018-Apr-19 03:00S 32°48' E 152°10'4 7.6
2018-Apr-19 02:30S 32°46' E 152°14'4 7.7
2018-Apr-19 02:00S 32°42' E 152°17'4 7.8
2018-Apr-19 01:30S 32°39' E 152°19'3 6.3
2018-Apr-19 01:00S 32°36' E 152°21'2 3.3
2018-Apr-19 00:30S 32°36' E 152°19'0 0.1
2018-Apr-18 23:59S 32°37' E 152°19'0 0.0
2018-Apr-18 23:31S 32°37' E 152°19'0 0.0
2018-Apr-18 23:00S 32°37' E 152°19'0 0.0
2018-Apr-18 22:30S 32°37' E 152°19'0 0.0
2018-Apr-18 22:00S 32°37' E 152°19'0 0.0
2018-Apr-18 21:31S 32°37' E 152°19'0 0.0
2018-Apr-18 21:01S 32°37' E 152°19'0 0.0
2018-Apr-18 20:30S 32°37' E 152°19'0 0.0
2018-Apr-18 20:00S 32°37' E 152°19'0 0.0
2018-Apr-18 19:30S 32°37' E 152°19'0 0.0
2018-Apr-18 19:01S 32°37' E 152°19'0 0.0
2018-Apr-18 18:30S 32°37' E 152°19'0 0.0
2018-Apr-18 18:00S 32°37' E 152°19'0 0.0
2018-Apr-18 17:30S 32°37' E 152°19'0 0.0
2018-Apr-18 17:00S 32°37' E 152°19'0 0.0
2018-Apr-18 16:30S 32°37' E 152°19'0 0.0
2018-Apr-18 16:00S 32°37' E 152°19'0 0.0
2018-Apr-18 15:30S 32°37' E 152°19'0 0.0
2018-Apr-18 15:00S 32°37' E 152°19'0 0.0
2018-Apr-18 14:30S 32°37' E 152°19'0 0.0
2018-Apr-18 14:00S 32°37' E 152°19'0 0.0
2018-Apr-18 13:30S 32°37' E 152°19'0 0.0
2018-Apr-18 13:01S 32°37' E 152°19'0 0.0
2018-Apr-18 12:31S 32°37' E 152°19'0 0.0
2018-Apr-18 12:01S 32°37' E 152°19'0 0.0
2018-Apr-18 11:30S 32°37' E 152°19'0 0.0
2018-Apr-18 11:00S 32°37' E 152°19'0 0.0
2018-Apr-18 10:31S 32°37' E 152°19'0 0.0
2018-Apr-18 10:01S 32°37' E 152°19'0 0.0
2018-Apr-18 09:30S 32°37' E 152°19'0 0.1
2018-Apr-18 09:00S 32°37' E 152°19'0 0.1
2018-Apr-18 08:30S 32°37' E 152°19'0 0.0
2018-Apr-18 08:00S 32°37' E 152°19'0 0.0
2018-Apr-18 07:30S 32°37' E 152°19'0 0.1
2018-Apr-18 07:00S 32°37' E 152°19'0 0.0
2018-Apr-18 06:30S 32°37' E 152°19'0 0.0
2018-Apr-18 06:00S 32°36' E 152°19'0 0.0
2018-Apr-18 05:30S 32°36' E 152°19'0 0.0
2018-Apr-18 05:00S 32°37' E 152°19'0 0.1
2018-Apr-18 04:30S 32°36' E 152°19'0 0.0
2018-Apr-18 04:00S 32°36' E 152°19'0 0.1
2018-Apr-18 03:30S 32°36' E 152°19'1 2.7
2018-Apr-18 03:00S 32°36' E 152°20'2 4.9
2018-Apr-18 02:30S 32°37' E 152°22'3 6.0
2018-Apr-18 02:00S 32°40' E 152°21'3 5.5
2018-Apr-18 01:30S 32°43' E 152°20'1 1.0
2018-Apr-18 01:00S 32°43' E 152°21'2 4.1
2018-Apr-18 00:30S 32°45' E 152°21'3 6.8
2018-Apr-18 00:00S 32°48' E 152°18'3 6.8
2018-Apr-17 23:30S 32°51' E 152°16'3 7.0
2018-Apr-17 23:00S 32°53' E 152°13'3 6.9
2018-Apr-17 22:30S 32°57' E 152°12'4 6.9
2018-Apr-17 22:00S 32°60' E 152°10'48 4.0
2018-Apr-17 10:01S 33°36' E 151°32'2 6.6
2018-Apr-17 09:43S 33°37' E 151°30'5 5.4
2018-Apr-17 08:46S 33°40' E 151°25'1 3.0
2018-Apr-17 08:30S 33°41' E 151°25'2 3.4
2018-Apr-17 08:00S 33°42' E 151°24'2 3.3
2018-Apr-17 07:30S 33°44' E 151°23'2 3.4
2018-Apr-17 07:00S 33°45' E 151°23'2 3.4
2018-Apr-17 06:30S 33°47' E 151°22'3 6.4
2018-Apr-17 06:00S 33°50' E 151°20'3 5.7
2018-Apr-17 05:30S 33°50' E 151°17'1 2.1
2018-Apr-17 05:00S 33°51' E 151°16'0 0.0
2018-Apr-17 04:30S 33°51' E 151°16'0 0.0
2018-Apr-17 03:57S 33°51' E 151°16'0 0.0
2018-Apr-17 03:30S 33°51' E 151°16'0 0.0
2018-Apr-17 03:00S 33°51' E 151°16'0 0.0
2018-Apr-17 02:30S 33°51' E 151°16'0 0.1
2018-Apr-17 01:57S 33°51' E 151°16'0 0.0
2018-Apr-17 01:30S 33°51' E 151°16'0 0.0
2018-Apr-17 00:57S 33°51' E 151°16'0 0.0
2018-Apr-17 00:27S 33°51' E 151°16'0 0.0
2018-Apr-17 00:00S 33°51' E 151°16'0 0.0
2018-Apr-16 23:30S 33°51' E 151°16'0 0.0
2018-Apr-16 22:57S 33°51' E 151°16'0 0.0
2018-Apr-16 22:30S 33°51' E 151°16'0 0.0
2018-Apr-16 22:00S 33°51' E 151°16'0 0.0
2018-Apr-16 21:27S 33°51' E 151°16'0 0.0
2018-Apr-16 21:00S 33°51' E 151°16'0 0.0
2018-Apr-16 20:30S 33°51' E 151°16'0 0.0
2018-Apr-16 20:00S 33°51' E 151°16'0 0.0
2018-Apr-16 19:30S 33°51' E 151°16'0 0.0
2018-Apr-16 19:00S 33°51' E 151°16'0 0.0
2018-Apr-16 18:30S 33°51' E 151°16'0 0.1
2018-Apr-16 18:00S 33°51' E 151°16'0 0.1
2018-Apr-16 17:30S 33°51' E 151°16'0 0.0
2018-Apr-16 17:00S 33°51' E 151°16'0 0.0
2018-Apr-16 16:30S 33°51' E 151°16'0 0.0
2018-Apr-16 16:00S 33°51' E 151°16'0 0.0
2018-Apr-16 15:30S 33°51' E 151°16'0 0.0
2018-Apr-16 15:00S 33°51' E 151°16'0 0.0
2018-Apr-16 14:30S 33°51' E 151°16'0 0.0
2018-Apr-16 14:00S 33°51' E 151°16'0 0.0
2018-Apr-16 13:30S 33°51' E 151°16'0 0.0
2018-Apr-16 13:00S 33°51' E 151°16'0 0.0
2018-Apr-16 12:30S 33°51' E 151°16'0 0.0
2018-Apr-16 12:00S 33°51' E 151°16'0 0.0
2018-Apr-16 11:30S 33°51' E 151°16'0 0.0
2018-Apr-16 11:00S 33°51' E 151°16'0 0.0
2018-Apr-16 10:30S 33°51' E 151°16'0 0.0
2018-Apr-16 10:00S 33°51' E 151°16'0 0.0
2018-Apr-16 09:27S 33°51' E 151°16'0 0.0
2018-Apr-16 09:00S 33°51' E 151°16'0 0.0
2018-Apr-16 08:30S 33°51' E 151°16'0 0.0
2018-Apr-16 08:00S 33°51' E 151°16'0 0.0
2018-Apr-16 07:30S 33°51' E 151°16'0 0.1
2018-Apr-16 07:00S 33°51' E 151°16'  
2018-Apr-12 01:42S 33°51' E 151°15'1 3.3
2018-Apr-12 01:30S 33°51' E 151°16'0 0.2
2018-Apr-11 22:36S 33°51' E 151°15'1 7.1
2018-Apr-11 22:31S 33°51' E 151°16'2 3.5
2018-Apr-11 21:55S 33°49' E 151°17'0 0.0
2018-Apr-11 21:19S 33°49' E 151°17'0 0.0
2018-Apr-11 20:55S 33°49' E 151°17'0 0.1
2018-Apr-11 20:28S 33°49' E 151°17'0 0.0
2018-Apr-11 19:58S 33°49' E 151°17'0 0.1
2018-Apr-11 19:28S 33°49' E 151°17'0 0.0
2018-Apr-11 18:58S 33°49' E 151°17'0 0.1
2018-Apr-11 18:28S 33°49' E 151°17'0 0.0
2018-Apr-11 17:58S 33°49' E 151°17'0 0.0
2018-Apr-11 17:25S 33°49' E 151°17'0 0.0
2018-Apr-11 16:58S 33°49' E 151°17'0 0.0
2018-Apr-11 16:25S 33°49' E 151°17'0 0.0
2018-Apr-11 15:55S 33°49' E 151°17'0 0.1
2018-Apr-11 15:19S 33°49' E 151°17'0 0.1
2018-Apr-11 14:58S 33°49' E 151°17'0 0.0
2018-Apr-11 14:28S 33°49' E 151°17'0 0.0
2018-Apr-11 13:55S 33°49' E 151°17'0 0.0
2018-Apr-11 13:25S 33°49' E 151°17'0 0.0
2018-Apr-11 12:58S 33°49' E 151°17'0 0.0
2018-Apr-11 12:28S 33°49' E 151°17'0 0.0
2018-Apr-11 11:58S 33°49' E 151°17'0 0.0
2018-Apr-11 11:28S 33°49' E 151°17'0 0.0
2018-Apr-11 10:55S 33°49' E 151°17'0 0.0
2018-Apr-11 10:25S 33°49' E 151°17'0 0.0
2018-Apr-11 09:49S 33°49' E 151°17'0 0.0
2018-Apr-11 09:28S 33°49' E 151°17'0 0.0
2018-Apr-11 08:58S 33°49' E 151°17'0 0.0
2018-Apr-11 08:28S 33°49' E 151°17'0 0.0
2018-Apr-11 07:58S 33°49' E 151°17'0 0.0
2018-Apr-11 07:28S 33°49' E 151°17'0 0.0
2018-Apr-11 06:46S 33°49' E 151°17'0 0.0
2018-Apr-11 05:43S 33°49' E 151°17'0 0.0
2018-Apr-11 05:28S 33°49' E 151°17'0 0.0
2018-Apr-11 04:10S 33°49' E 151°17'0 0.0
2018-Apr-11 03:55S 33°49' E 151°17'0 0.0
2018-Apr-11 03:28S 33°49' E 151°17'0 0.0
2018-Apr-11 02:01S 33°49' E 151°17'0 0.0
2018-Apr-11 01:49S 33°49' E 151°17'0 0.0
2018-Apr-11 00:55S 33°49' E 151°17'0 0.0
2018-Apr-11 00:13S 33°49' E 151°17'0 0.0
2018-Apr-10 23:43S 33°49' E 151°17'0 0.0
2018-Apr-10 23:25S 33°49' E 151°17'0 0.0
2018-Apr-10 22:55S 33°49' E 151°17'0 0.0
2018-Apr-10 22:25S 33°49' E 151°17'0 0.0
2018-Apr-10 21:46S 33°49' E 151°17'0 0.0
2018-Apr-10 21:28S 33°49' E 151°17'0 0.1
2018-Apr-10 20:55S 33°49' E 151°17'0 0.1
2018-Apr-10 20:22S 33°49' E 151°17'0 0.0
2018-Apr-10 19:58S 33°49' E 151°17'0 0.0
2018-Apr-10 19:28S 33°49' E 151°17'0 0.0
2018-Apr-10 18:58S 33°49' E 151°17'0 0.0
2018-Apr-10 18:25S 33°49' E 151°17'0 0.0
2018-Apr-10 17:58S 33°49' E 151°17'0 0.0
2018-Apr-10 17:28S 33°49' E 151°17'0 0.0
2018-Apr-10 16:52S 33°49' E 151°17'0 0.0
2018-Apr-10 16:25S 33°49' E 151°17'0 0.0
2018-Apr-10 15:58S 33°49' E 151°17'0 0.0
2018-Apr-10 15:28S 33°49' E 151°17'0 0.0
2018-Apr-10 14:52S 33°49' E 151°17'0 0.0
2018-Apr-10 14:28S 33°49' E 151°17'0 0.0
2018-Apr-10 13:58S 33°49' E 151°17'0 0.1
2018-Apr-10 13:30S 33°49' E 151°17'2 3.4
2018-Apr-10 13:01S 33°50' E 151°18'2 4.8
2018-Apr-10 12:31S 33°50' E 151°21'2 4.0
2018-Apr-10 12:01S 33°49' E 151°24'2 3.3
2018-Apr-10 11:31S 33°48' E 151°25'2 4.1
2018-Apr-10 11:01S 33°46' E 151°25'2 4.4
2018-Apr-10 10:31S 33°44' E 151°24'2 4.1
2018-Apr-10 10:01S 33°42' E 151°24'2 4.1
2018-Apr-10 09:31S 33°40' E 151°24'2 4.0
2018-Apr-10 09:00S 33°38' E 151°24'2 3.6
2018-Apr-10 08:25S 33°36' E 151°23'2 4.0
2018-Apr-10 08:00S 33°35' E 151°21'2 3.4
2018-Apr-10 07:30S 33°34' E 151°19'0 0.2
2018-Apr-10 06:26S 33°34' E 151°20'2 4.3
2018-Apr-10 06:00S 33°34' E 151°17'  

Dump ship's entire track history